Weldon Spring Heights, MO

9:42 AM CDT on April 23, 2017 (GMT -0500)
Piedmont Park | | Change Station
Active Advisory: Flood Warning

Elev 548 ft 38.73 °N, 90.70 °W | Updated 29 seconds ago

Clear
Clear
61.7 °F
Feels Like 61.7 °F
N
3.0
Wind Variable Wind from NE

Today
High -- | Low -- °F
--% Chance of Precip.
Yesterday
High -- | Low -- °F
Precip. -- in
Pressure 30.12 in
Visibility 10.0 miles
Clouds Clear
Dew Point 37 °F
Humidity 40%
Rainfall 0.00 in
Snow Depth Not available.
6:15 AM 7:47 PM
Waning Crescent, 11% visible
METAR KSUS 231354Z 04006KT 10SM CLR 12/03 A3011 RMK AO2 SLP199 T01220028
Pressure 30.12 in
Visibility 10.0 miles
Clouds Clear
Dew Point 37 °F
Humidity 40%
Rainfall 0.00 in
Snow Depth Not available.
6:15 AM 7:47 PM
Waning Crescent, 11% visible
METAR KSUS 231354Z 04006KT 10SM CLR 12/03 A3011 RMK AO2 SLP199 T01220028

Get Your Daily Forecast Email!

Thanks for signing up!

Be on the lookout for a verification email in your inbox.

You'll start receiving severe weather alerts in your inbox..

×

10-Day Weather Forecast

Almanac

Astronomy

Apr. 23, 2017 Rise Set
Actual Time
Civil Twilight
Nautical Twilight
Astronomical Twilight
Moon
Length of Visible Light
Length of Day
Tomorrow will be .
, % of the Moon is Illuminated

Today's Extremes

State Highs State Lows

Community

WunderPhotos

WunderBlog® & News

Nearby

Air Quality

  Air Quality AQ Index Pollutant
Not available.

Snow Depth

Station Depth Elevation

Earthquake Activity

City Distance Mag. Time & Date
Minimum magnitude displayed is 2.5.

Coastal Water Temperatures

Place Temperature

Stations

Nearby Weather Stations

Station Location Temp. Windchill Dew Point Humidity Wind Precip. Elev Updated Type
                   

Watches & Warnings

Flood Warning
Issued: 8:46 PM CDT Apr. 22, 2017 – National Weather Service

The Flood Warning continues for
the Mississippi River at Grafton
* until Saturday April 29.
* At 8:30 PM Saturday the stage was 18.1 feet.
* Flood stage is 18.0 feet.
* Minor flooding is forecast.
* The river is forecast to crest near 18.2 feet by tomorrow evening,
then fall below flood stage Friday evening.
* Impact: at 18.0 feet... flood stage. Right bank begins to
overflow... flooding farmland.
* Impact: at 16.2 feet... for navigational purposes through Alton lock
and dam control, the corps will not allow the river to exceed this
level, if at all possible. Above this level, water inundates land
not owned by the usace.

                   Fld latest 7 a.M. Forecast
location stg obs stg 04/23 04/24 04/25 04/26 04/27

Mississippi River
Grafton 18.0 18.08 18.2 18.2 18.1 18.0 18.0




Lat... Lon 3881 9057 3888 9057 3899 9046 3895 9028
      3882 9048